Thunder radar more information blitzortung!


Radar de pluja more information rain snow radar


Visita la nostra xarxa de llocs de meteo:

Template documentation
and downloads

And another site



No particular awareness of the weather is required.    There are no Weather-warnings

Pagina Historial Weather Underground text

Diari Resum Abril 2, 2016 Unitats:  Mètric    Imperial   Tant
« Previous Dia
SegĂźent Dia »
Diari Setmana Mensual Anual Personalitzada
  Maxima: Minima: Media:
Temperatura: 19.2 °C 8.4 °C 12.7 °C
Punt de rosada: 8.1 °C 2.7 °C 4.9 °C
Humitat: 81 % 46 % 60 %
Wind Speed: 14.8 km/h 0.0 km/h 4.9 km/h
RĂ fegues de vent: 14.8 km/h - -
Vent:- - SSW
Pression baro: 1015.8 hPa 1010.7 hPa -
Precipitacions: 0.0 mm    
Historical Graphs
 
 
Dades de taula per Abril 2, 2016
Temps Temperatura Punt de rosada Pression baro Vent Wind Speed RĂ fegues de vent Humitat Rainfall Rate (Hourly)
00:00 8.5 °C 5.4 °C 1011.7 hPa Calm   3.2 km/h 81 % 0.0 mm
00:10 8.5 °C 5.4 °C 1011.7 hPa SW 1.6 km/h 3.2 km/h 81 % 0.0 mm
00:20 8.5 °C 5.2 °C 1011.7 hPa Calm   3.2 km/h 80 % 0.0 mm
00:30 8.5 °C 5.2 °C 1012.8 hPa Calm   3.2 km/h 80 % 0.0 mm
00:40 8.5 °C 5.2 °C 1011.7 hPa SW 3.2 km/h 3.2 km/h 80 % 0.0 mm
00:50 8.7 °C 5.4 °C 1011.7 hPa WSW 1.6 km/h 6.4 km/h 80 % 0.0 mm
01:00 8.7 °C 5.3 °C 1011.7 hPa Calm   1.6 km/h 79 % 0.0 mm
01:10 8.8 °C 5.2 °C 1011.7 hPa SW 1.6 km/h 1.6 km/h 78 % 0.0 mm
01:20 8.8 °C 5.0 °C 1011.7 hPa SW 1.6 km/h 3.2 km/h 77 % 0.0 mm
01:30 8.8 °C 4.8 °C 1011.7 hPa WSW 1.6 km/h 4.8 km/h 76 % 0.0 mm
01:40 8.8 °C 4.4 °C 1011.7 hPa WSW 3.2 km/h 4.8 km/h 74 % 0.0 mm
01:50 8.8 °C 4.2 °C 1011.7 hPa WSW 1.6 km/h 4.8 km/h 73 % 0.0 mm
02:00 8.7 °C 3.9 °C 1011.7 hPa WSW 1.6 km/h 3.2 km/h 72 % 0.0 mm
02:10 8.7 °C 3.9 °C 1011.7 hPa SW 1.6 km/h 3.2 km/h 72 % 0.0 mm
02:20 8.6 °C 3.8 °C 1011.7 hPa SW 1.6 km/h 3.2 km/h 72 % 0.0 mm
02:30 8.5 °C 3.3 °C 1011.7 hPa Calm   3.2 km/h 70 % 0.0 mm
02:40 8.4 °C 3.2 °C 1012.8 hPa SW 1.6 km/h 3.2 km/h 70 % 0.0 mm
02:50 8.4 °C 3.2 °C 1012.8 hPa WSW 1.6 km/h 3.2 km/h 70 % 0.0 mm
03:00 8.5 °C 3.1 °C 1011.7 hPa WSW 3.2 km/h 3.2 km/h 69 % 0.0 mm
03:10 8.5 °C 3.1 °C 1012.8 hPa Calm   3.2 km/h 69 % 0.0 mm
03:30 8.7 °C 3.3 °C 1012.8 hPa SW 1.6 km/h 3.2 km/h 69 % 0.0 mm
03:50 9.2 °C 3.8 °C 1012.8 hPa SSW 1.6 km/h 3.2 km/h 69 % 0.0 mm
04:00 9.3 °C 3.7 °C 1013.8 hPa SSW 1.6 km/h 4.8 km/h 68 % 0.0 mm
04:10 9.3 °C 3.5 °C 1013.8 hPa SW 1.6 km/h 4.8 km/h 67 % 0.0 mm
04:20 9.5 °C 3.7 °C 1013.8 hPa WSW 3.2 km/h 3.2 km/h 67 % 0.0 mm
04:40 9.7 °C 3.9 °C 1013.8 hPa SW 1.6 km/h 1.6 km/h 67 % 0.0 mm
04:50 9.8 °C 3.9 °C 1013.8 hPa South 1.6 km/h   67 % 0.0 mm
05:00 9.9 °C 4.1 °C 1013.8 hPa SSW 3.2 km/h 4.8 km/h 67 % 0.0 mm
05:10 9.9 °C 3.8 °C 1013.8 hPa SW 3.2 km/h 4.8 km/h 66 % 0.0 mm
05:20 10.0 °C 3.7 °C 1013.8 hPa WSW 4.8 km/h 4.8 km/h 65 % 0.0 mm
05:30 10.2 °C 3.7 °C 1013.8 hPa WSW 3.2 km/h 8.0 km/h 64 % 0.0 mm
05:40 10.4 °C 3.9 °C 1013.8 hPa WSW 4.8 km/h 6.4 km/h 64 % 0.0 mm
05:50 10.4 °C 3.7 °C 1013.8 hPa WSW 3.2 km/h 6.4 km/h 63 % 0.0 mm
10:54 10.5 °C 3.7 °C 1013.8 hPa West 6.4 km/h 6.4 km/h 63 % 0.0 mm
10:59 10.5 °C 3.7 °C 1013.8 hPa SSW 5.6 km/h 5.6 km/h 63 % 0.0 mm
11:04 10.5 °C 3.7 °C 1013.8 hPa WSW 7.4 km/h 7.4 km/h 63 % 0.0 mm
11:09 10.6 °C 3.8 °C 1013.8 hPa WSW 5.6 km/h 5.6 km/h 63 % 0.0 mm
11:19 10.8 °C 4.1 °C 1013.8 hPa WSW 5.6 km/h 5.6 km/h 63 % 0.0 mm
11:24 10.9 °C 4.1 °C 1013.8 hPa SW 4.7 km/h 4.7 km/h 63 % 0.0 mm
11:29 11.0 °C 4.2 °C 1013.8 hPa WSW 5.6 km/h 5.6 km/h 63 % 0.0 mm
11:34 11.1 °C 4.3 °C 1013.8 hPa WSW 3.7 km/h 3.7 km/h 63 % 0.0 mm
11:44 11.3 °C 4.5 °C 1013.8 hPa SW 5.6 km/h 5.6 km/h 63 % 0.0 mm
11:49 11.3 °C 4.5 °C 1013.8 hPa SW 3.7 km/h 3.7 km/h 63 % 0.0 mm
11:54 11.4 °C 4.6 °C 1013.8 hPa East 1.9 km/h   63 % 0.0 mm
11:59 11.5 °C 4.7 °C 1013.8 hPa WSW 3.7 km/h 3.7 km/h 63 % 0.0 mm
12:04 11.5 °C 4.7 °C 1013.8 hPa East 2.6 km/h 2.6 km/h 63 % 0.0 mm
12:09 11.6 °C 4.8 °C 1013.8 hPa NNE 3.7 km/h 3.7 km/h 63 % 0.0 mm
12:14 11.7 °C 4.7 °C 1013.8 hPa NE 3.7 km/h 3.7 km/h 62 % 0.0 mm
12:19 11.7 °C 4.7 °C 1013.8 hPa West 3.7 km/h 3.7 km/h 62 % 0.0 mm
12:24 11.8 °C 4.7 °C 1013.8 hPa WSW 3.7 km/h 3.7 km/h 62 % 0.0 mm
12:29 12.0 °C 4.9 °C 1013.8 hPa WNW 3.7 km/h   62 % 0.0 mm
12:34 11.8 °C 4.7 °C 1013.8 hPa WSW 5.6 km/h 5.6 km/h 62 % 0.0 mm
12:39 11.8 °C 4.7 °C 1013.8 hPa SW 3.7 km/h 3.7 km/h 62 % 0.0 mm
12:44 12.0 °C 4.9 °C 1013.8 hPa WNW 2.3 km/h 2.3 km/h 62 % 0.0 mm
12:49 12.2 °C 5.1 °C 1013.8 hPa ENE 2.3 km/h 2.3 km/h 62 % 0.0 mm
12:59 12.4 °C 5.1 °C 1013.8 hPa WSW 3.7 km/h 3.7 km/h 61 % 0.0 mm
13:04 12.6 °C 5.5 °C 1013.8 hPa West 3.7 km/h 3.7 km/h 62 % 0.0 mm
13:09 12.3 °C 4.8 °C 1013.8 hPa ESE 3.7 km/h 3.7 km/h 60 % 0.0 mm
13:14 12.3 °C 4.8 °C 1013.8 hPa ESE 1.9 km/h 2.3 km/h 60 % 0.0 mm
13:19 12.6 °C 5.3 °C 1013.8 hPa WSW 3.9 km/h 3.9 km/h 61 % 0.0 mm
13:24 12.5 °C 5.2 °C 1013.8 hPa SW 5.6 km/h 5.6 km/h 61 % 0.0 mm
13:29 12.6 °C 5.3 °C 1013.8 hPa WSW 6.1 km/h 6.1 km/h 61 % 0.0 mm
13:34 12.7 °C 5.4 °C 1013.8 hPa SSW 4.2 km/h 4.2 km/h 61 % 0.0 mm
13:39 12.9 °C 5.6 °C 1013.8 hPa WSW 3.7 km/h 3.7 km/h 61 % 0.0 mm
13:44 13.0 °C 5.4 °C 1013.8 hPa WSW 5.6 km/h 5.6 km/h 60 % 0.0 mm
13:49 12.9 °C 5.3 °C 1012.8 hPa WSW 3.7 km/h 3.7 km/h 60 % 0.0 mm
13:54 13.0 °C 5.4 °C 1012.8 hPa WSW 7.4 km/h 7.4 km/h 60 % 0.0 mm
13:59 13.0 °C 5.4 °C 1012.8 hPa SSW 5.6 km/h 5.6 km/h 60 % 0.0 mm
14:04 13.1 °C 5.3 °C 1013.8 hPa SW 3.7 km/h 3.7 km/h 59 % 0.0 mm
14:09 13.2 °C 5.3 °C 1013.8 hPa WNW 3.7 km/h 3.7 km/h 59 % 0.0 mm
14:14 13.4 °C 5.6 °C 1013.8 hPa WSW 3.7 km/h 3.7 km/h 59 % 0.0 mm
14:19 13.5 °C 5.6 °C 1013.8 hPa West 3.7 km/h 3.7 km/h 59 % 0.0 mm
14:24 13.5 °C 5.6 °C 1013.8 hPa WSW 5.8 km/h 5.8 km/h 59 % 0.0 mm
14:29 13.5 °C 5.4 °C 1013.8 hPa SSE 1.9 km/h   58 % 0.0 mm
14:34 13.5 °C 5.2 °C 1013.8 hPa SSE 3.7 km/h 3.7 km/h 57 % 0.0 mm
14:39 13.7 °C 5.6 °C 1013.8 hPa East 3.9 km/h   58 % 0.0 mm
14:44 13.7 °C 5.3 °C 1013.8 hPa ESE 7.4 km/h 7.4 km/h 57 % 0.0 mm
14:49 13.7 °C 5.3 °C 1013.8 hPa ENE 4.7 km/h 4.7 km/h 57 % 0.0 mm
14:54 13.7 °C 5.3 °C 1013.8 hPa SSE 3.7 km/h 3.9 km/h 57 % 0.0 mm
14:59 13.7 °C 5.3 °C 1013.8 hPa ENE 6.1 km/h 6.1 km/h 57 % 0.0 mm
15:04 13.7 °C 5.6 °C 1013.8 hPa NE 3.5 km/h 3.5 km/h 58 % 0.0 mm
15:09 13.8 °C 5.4 °C 1013.8 hPa NNE 3.9 km/h 3.9 km/h 57 % 0.0 mm
15:14 13.7 °C 5.3 °C 1013.8 hPa East 3.7 km/h   57 % 0.0 mm
15:19 13.8 °C 5.4 °C 1013.8 hPa ENE 5.6 km/h 5.6 km/h 57 % 0.0 mm
15:24 13.6 °C 5.2 °C 1013.8 hPa NNE 3.7 km/h 3.7 km/h 57 % 0.0 mm
15:29 13.7 °C 5.3 °C 1013.8 hPa ENE 3.9 km/h 3.9 km/h 57 % 0.0 mm
15:34 13.8 °C 5.4 °C 1012.8 hPa East 4.2 km/h 4.2 km/h 57 % 0.0 mm
15:39 14.0 °C 5.8 °C 1012.8 hPa East 4.2 km/h 4.2 km/h 58 % 0.0 mm
15:44 14.0 °C 5.6 °C 1012.8 hPa East 4.2 km/h 4.2 km/h 57 % 0.0 mm
15:49 14.0 °C 5.6 °C 1012.8 hPa ENE 7.4 km/h 7.4 km/h 57 % 0.0 mm
15:54 14.2 °C 5.8 °C 1012.8 hPa NE 5.6 km/h 5.6 km/h 57 % 0.0 mm
15:59 14.5 °C 6.1 °C 1012.8 hPa East 7.4 km/h 7.4 km/h 57 % 0.0 mm
16:04 14.7 °C 6.3 °C 1011.7 hPa ENE 9.3 km/h 9.3 km/h 57 % 0.0 mm
16:09 15.0 °C 6.6 °C 1011.7 hPa NNE 5.6 km/h 5.6 km/h 57 % 0.0 mm
16:14 15.1 °C 6.4 °C 1011.7 hPa East 3.7 km/h 3.7 km/h 56 % 0.0 mm
16:19 15.2 °C 6.5 °C 1011.7 hPa WNW 2.3 km/h 2.3 km/h 56 % 0.0 mm
16:24 15.9 °C 7.4 °C 1011.7 hPa West 3.5 km/h 3.5 km/h 57 % 0.0 mm
16:29 16.3 °C 7.5 °C 1011.7 hPa WSW 7.4 km/h 7.4 km/h 56 % 0.0 mm
16:34 16.4 °C 7.1 °C 1010.7 hPa SSW 11.1 km/h 11.1 km/h 54 % 0.0 mm
16:39 16.8 °C 7.4 °C 1010.7 hPa West 9.3 km/h 9.3 km/h 54 % 0.0 mm
16:44 17.0 °C 7.3 °C 1010.7 hPa SSE 5.8 km/h 5.8 km/h 53 % 0.0 mm
16:49 17.6 °C 7.9 °C 1011.7 hPa WNW 3.7 km/h 3.7 km/h 53 % 0.0 mm
16:54 17.3 °C 7.3 °C 1011.7 hPa East 7.4 km/h 7.4 km/h 52 % 0.0 mm
16:59 17.3 °C 7.3 °C 1011.7 hPa West 7.9 km/h 7.9 km/h 52 % 0.0 mm
17:04 17.0 °C 7.1 °C 1011.7 hPa ESE 5.6 km/h 5.6 km/h 52 % 0.0 mm
17:09 17.3 °C 7.3 °C 1011.7 hPa SSW 3.7 km/h 3.7 km/h 52 % 0.0 mm
17:14 17.3 °C 7.1 °C 1011.7 hPa NE 5.6 km/h 5.6 km/h 51 % 0.0 mm
17:19 17.7 °C 7.7 °C 1011.7 hPa SW 3.7 km/h 3.7 km/h 52 % 0.0 mm
17:24 18.1 °C 7.8 °C 1011.7 hPa SW 7.4 km/h 7.4 km/h 51 % 0.0 mm
17:29 17.8 °C 7.8 °C 1011.7 hPa SSW 3.7 km/h 3.7 km/h 52 % 0.0 mm
17:34 17.9 °C 7.6 °C 1010.7 hPa NNE 7.4 km/h 7.4 km/h 51 % 0.0 mm
17:39 17.7 °C 7.4 °C 1010.7 hPa WSW 7.4 km/h 7.4 km/h 51 % 0.0 mm
17:44 18.3 °C 7.7 °C 1010.7 hPa SW 9.3 km/h 9.3 km/h 50 % 0.0 mm
17:49 18.1 °C 7.5 °C 1011.7 hPa NE 1.9 km/h 1.9 km/h 50 % 0.0 mm
17:59 19.0 °C 8.1 °C 1011.7 hPa SW 6.1 km/h 6.1 km/h 49 % 0.0 mm
18:04 19.1 °C 7.8 °C 1011.7 hPa SW 5.6 km/h 5.6 km/h 48 % 0.0 mm
18:09 19.2 °C 7.9 °C 1011.7 hPa SW 5.6 km/h 5.6 km/h 48 % 0.0 mm
18:14 18.8 °C 7.6 °C 1011.7 hPa SW 9.3 km/h 9.3 km/h 48 % 0.0 mm
18:24 18.4 °C 6.6 °C 1011.7 hPa SSW 11.1 km/h 11.1 km/h 46 % 0.0 mm
18:29 18.2 °C 6.4 °C 1011.7 hPa SW 9.3 km/h 9.3 km/h 46 % 0.0 mm
18:34 18.3 °C 6.5 °C 1011.7 hPa SW 7.4 km/h 7.4 km/h 46 % 0.0 mm
18:39 18.0 °C 6.5 °C 1011.7 hPa SW 9.3 km/h 9.3 km/h 47 % 0.0 mm
18:44 17.6 °C 6.8 °C 1011.7 hPa WSW 14.8 km/h 14.8 km/h 49 % 0.0 mm
18:49 17.5 °C 6.7 °C 1011.7 hPa WSW 13.0 km/h 13.0 km/h 49 % 0.0 mm
18:54 17.2 °C 6.7 °C 1011.7 hPa SSW 11.1 km/h 11.1 km/h 50 % 0.0 mm
18:59 16.8 °C 6.6 °C 1011.7 hPa SSW 13.0 km/h 13.0 km/h 51 % 0.0 mm
19:04 16.8 °C 6.6 °C 1011.7 hPa SW 9.3 km/h 9.3 km/h 51 % 0.0 mm
19:09 16.7 °C 6.8 °C 1011.7 hPa SSW 9.0 km/h 9.0 km/h 52 % 0.0 mm
19:14 16.2 °C 6.3 °C 1011.7 hPa SSW 14.8 km/h 14.8 km/h 52 % 0.0 mm
19:15 10.1 °C 3.8 °C 1014.8 hPa WSW 4.8 km/h 6.4 km/h 65 % 0.0 mm
19:19 15.9 °C 6.1 °C 1011.7 hPa SW 9.0 km/h 9.0 km/h 52 % 0.0 mm
19:24 15.8 °C 5.9 °C 1011.7 hPa SW 10.0 km/h 10.0 km/h 52 % 0.0 mm
19:25 10.0 °C 4.2 °C 1014.8 hPa WSW 4.8 km/h 6.4 km/h 67 % 0.0 mm
19:29 15.6 °C 6.1 °C 1011.7 hPa SW 9.7 km/h 9.7 km/h 53 % 0.0 mm
19:34 15.4 °C 5.9 °C 1011.7 hPa SSW 13.0 km/h 13.0 km/h 53 % 0.0 mm
19:35 9.9 °C 4.1 °C 1014.8 hPa West 3.2 km/h 3.2 km/h 67 % 0.0 mm
19:39 15.1 °C 5.6 °C 1011.7 hPa SW 9.3 km/h 9.3 km/h 53 % 0.0 mm
19:44 14.9 °C 5.4 °C 1011.7 hPa SSW 7.4 km/h 7.4 km/h 53 % 0.0 mm
19:45 9.8 °C 4.2 °C 1015.8 hPa West 3.2 km/h 9.7 km/h 68 % 0.0 mm
19:49 14.8 °C 5.6 °C 1011.7 hPa SW 11.1 km/h 11.1 km/h 54 % 0.0 mm
19:55 9.6 °C 4.0 °C 1014.8 hPa WSW 1.6 km/h 6.4 km/h 68 % 0.0 mm
19:59 14.5 °C 5.3 °C 1011.7 hPa WNW 13.0 km/h 13.0 km/h 54 % 0.0 mm
20:04 14.2 °C 5.0 °C 1011.7 hPa SSW 9.3 km/h 9.3 km/h 54 % 0.0 mm
20:05 9.6 °C 4.0 °C 1014.8 hPa WSW 1.6 km/h 9.7 km/h 68 % 0.0 mm
20:09 14.0 °C 4.8 °C 1011.7 hPa West 7.4 km/h 7.4 km/h 54 % 0.0 mm
20:14 13.9 °C 4.7 °C 1011.7 hPa WSW 9.3 km/h 9.3 km/h 54 % 0.0 mm
20:15 9.4 °C 4.0 °C 1014.8 hPa WSW 1.6 km/h 3.2 km/h 69 % 0.0 mm
20:20 13.7 °C 4.6 °C 1012.8 hPa SW 4.8 km/h 9.7 km/h 54 % 0.0 mm
20:25 13.5 °C 4.4 °C 1012.8 hPa SW 3.2 km/h 8.0 km/h 54 % 0.0 mm
20:30 13.3 °C 4.4 °C 1012.8 hPa SW 5.6 km/h 5.6 km/h 55 % 0.0 mm
20:35 13.2 °C 4.3 °C 1013.8 hPa SW 5.6 km/h 5.6 km/h 55 % 0.0 mm
20:40 13.1 °C 4.3 °C 1013.8 hPa WSW 5.6 km/h 5.6 km/h 55 % 0.0 mm
20:45 13.0 °C 4.2 °C 1013.8 hPa SW 7.4 km/h 7.4 km/h 55 % 0.0 mm
20:50 12.9 °C 4.3 °C 1013.8 hPa SW 5.3 km/h 5.3 km/h 56 % 0.0 mm
20:55 12.7 °C 4.2 °C 1013.8 hPa SW 5.6 km/h 5.6 km/h 56 % 0.0 mm
21:00 12.6 °C 4.3 °C 1013.8 hPa WSW 5.6 km/h 5.6 km/h 57 % 0.0 mm
21:05 12.6 °C 4.3 °C 1014.8 hPa SW 7.4 km/h 7.4 km/h 57 % 0.0 mm
21:10 12.4 °C 4.1 °C 1014.8 hPa SW 5.6 km/h 5.6 km/h 57 % 0.0 mm
21:15 12.3 °C 4.0 °C 1014.8 hPa SW 6.9 km/h 6.9 km/h 57 % 0.0 mm
21:20 12.1 °C 4.1 °C 1012.8 hPa SW 7.4 km/h 7.4 km/h 58 % 0.0 mm
21:25 12.0 °C 4.0 °C 1012.8 hPa West 5.6 km/h 5.8 km/h 58 % 0.0 mm
21:30 11.8 °C 3.8 °C 1012.8 hPa WSW 5.6 km/h 5.6 km/h 58 % 0.0 mm
21:35 11.7 °C 3.7 °C 1013.8 hPa WSW 3.2 km/h 6.4 km/h 58 % 0.0 mm
21:40 11.7 °C 3.7 °C 1013.8 hPa WSW 7.4 km/h 7.4 km/h 58 % 0.0 mm
21:45 11.6 °C 3.6 °C 1013.8 hPa WSW 1.6 km/h 4.8 km/h 58 % 0.0 mm
21:50 11.5 °C 3.5 °C 1013.8 hPa WSW 3.9 km/h 3.9 km/h 58 % 0.0 mm
21:55 11.5 °C 3.5 °C 1013.8 hPa WSW 1.6 km/h 6.4 km/h 58 % 0.0 mm
22:00 11.5 °C 3.5 °C 1013.8 hPa WSW 1.6 km/h 4.8 km/h 58 % 0.0 mm
22:05 11.4 °C 3.4 °C 1013.8 hPa Calm   4.8 km/h 58 % 0.0 mm
22:10 11.3 °C 3.3 °C 1013.8 hPa WSW 1.6 km/h 4.8 km/h 58 % 0.0 mm
22:15 11.3 °C 3.3 °C 1013.8 hPa Calm   3.2 km/h 58 % 0.0 mm
22:20 11.2 °C 3.0 °C 1014.8 hPa West 1.6 km/h 3.2 km/h 57 % 0.0 mm
22:25 11.2 °C 3.0 °C 1014.8 hPa WSW 3.2 km/h 4.8 km/h 57 % 0.0 mm
22:30 11.2 °C 3.0 °C 1014.8 hPa WSW 3.2 km/h 6.4 km/h 57 % 0.0 mm
22:35 11.2 °C 2.9 °C 1013.8 hPa WSW 3.2 km/h 4.8 km/h 57 % 0.0 mm
22:40 11.1 °C 2.8 °C 1013.8 hPa WSW 3.2 km/h 6.4 km/h 57 % 0.0 mm
22:45 11.0 °C 2.8 °C 1013.8 hPa WSW 4.8 km/h 8.0 km/h 57 % 0.0 mm
22:50 10.9 °C 2.9 °C 1014.8 hPa WSW 7.4 km/h 7.4 km/h 58 % 0.0 mm
22:55 9.4 °C 3.2 °C 1013.8 hPa Calm   3.2 km/h 65 % 0.0 mm
23:00 10.8 °C 2.8 °C 1014.8 hPa WSW 5.6 km/h 5.6 km/h 58 % 0.0 mm
23:05 10.8 °C 2.8 °C 1013.8 hPa WSW 5.6 km/h 5.6 km/h 58 % 0.0 mm
23:10 10.7 °C 2.8 °C 1013.8 hPa SW 5.6 km/h 5.6 km/h 58 % 0.0 mm
23:15 10.6 °C 2.7 °C 1013.8 hPa WSW 4.2 km/h 4.2 km/h 58 % 0.0 mm
23:20 10.6 °C 2.9 °C 1014.8 hPa WSW 5.8 km/h 5.8 km/h 59 % 0.0 mm
23:25 10.5 °C 2.8 °C 1014.8 hPa SW 4.7 km/h 4.7 km/h 59 % 0.0 mm
23:30 10.4 °C 2.7 °C 1014.8 hPa WSW 5.3 km/h 5.3 km/h 59 % 0.0 mm
23:35 10.3 °C 2.9 °C 1014.8 hPa SW 6.1 km/h 6.1 km/h 60 % 0.0 mm
23:40 10.2 °C 2.8 °C 1014.8 hPa WSW 5.6 km/h 5.6 km/h 60 % 0.0 mm
23:45 10.2 °C 3.0 °C 1014.8 hPa WSW 7.4 km/h 7.4 km/h 61 % 0.0 mm
23:50 10.2 °C 3.2 °C 1014.8 hPa SW 11.1 km/h 11.1 km/h 62 % 0.0 mm
23:55 10.1 °C 3.2 °C 1014.8 hPa WSW 7.4 km/h 7.4 km/h 62 % 0.0 mm
Meteo Sesrovires
Elogis d' Weather Underground - 3.5 mb

Guio original per  Jim McMurry - jmcmurry@mwt.net Adaptat per a la plantilla per  Wim van der Kuil - Leuven-Template.eu

Trobareu la nostra informacio del temps tambe a:

Weather Underground

AWEKAS